Time;durP1;ratioP1;P1;durP2;ratioP2;P2;SDS_P1;SDS_P2;PMS_P1;PMS_P2;Temp;Humidity;BMP_temperature;BMP_pressure;BME280_temperature;BME280_humidity;BME280_pressure;Samples;Min_cycle;Max_cycle;Signal;HPM_P1;HPM_P2
2023/09/27 00:00:39;;;;;;;16.05;10.20;;;;;;;14.21;100.00;101901.22;4894357;29;20547;-68
2023/09/27 00:03:05;;;;;;;16.13;9.98;;;;;;;14.16;100.00;101901.00;4894238;29;20033;-68
2023/09/27 00:05:31;;;;;;;17.40;11.20;;;;;;;14.11;100.00;101909.59;4894329;29;20132;-68
2023/09/27 00:07:56;;;;;;;21.20;12.32;;;;;;;14.06;100.00;101914.72;4894297;29;20032;-68
2023/09/27 00:10:22;;;;;;;17.63;10.98;;;;;;;14.01;100.00;101923.34;4894370;29;20143;-68
2023/09/27 00:12:48;;;;;;;20.48;10.98;;;;;;;13.99;100.00;101916.50;4894172;29;20037;-69
2023/09/27 00:15:14;;;;;;;18.52;10.85;;;;;;;14.00;100.00;101926.25;4894312;29;20047;-69
2023/09/27 00:17:41;;;;;;;17.73;10.75;;;;;;;13.99;100.00;101929.91;4894454;29;20032;-68
2023/09/27 00:20:11;;;;;;;17.55;10.82;;;;;;;13.96;100.00;101923.13;4894182;29;20067;-68
2023/09/27 00:22:37;;;;;;;18.00;10.70;;;;;;;13.92;100.00;101921.84;4877397;29;20040;-68
2023/09/27 00:25:04;;;;;;;18.45;12.32;;;;;;;14.01;100.00;101928.72;4894138;29;20052;-68
2023/09/27 00:27:30;;;;;;;19.88;12.77;;;;;;;14.00;100.00;101921.69;4894065;29;20040;-68
2023/09/27 00:29:55;;;;;;;17.40;10.50;;;;;;;13.97;100.00;101926.63;4894051;29;20048;-68
2023/09/27 00:32:21;;;;;;;16.98;9.70;;;;;;;13.91;100.00;101935.44;4877177;29;20036;-68
2023/09/27 00:34:46;;;;;;;18.73;11.93;;;;;;;13.84;100.00;101934.56;4877451;29;20560;-68
2023/09/27 00:37:11;;;;;;;16.73;10.63;;;;;;;13.72;100.00;101920.81;4894154;29;20449;-68
2023/09/27 00:39:39;;;;;;;16.15;10.07;;;;;;;13.66;100.00;101918.91;4894005;29;20025;-68
2023/09/27 00:42:04;;;;;;;19.95;11.73;;;;;;;13.63;100.00;101921.97;4894099;29;20485;-69
2023/09/27 00:44:30;;;;;;;21.17;12.88;;;;;;;13.64;100.00;101921.75;4894046;29;20036;-69
2023/09/27 00:46:55;;;;;;;17.48;11.57;;;;;;;13.64;100.00;101928.97;4893989;29;20036;-68
2023/09/27 00:49:21;;;;;;;18.60;10.93;;;;;;;13.64;100.00;101934.34;4893997;29;20215;-68
2023/09/27 00:51:47;;;;;;;19.77;10.13;;;;;;;13.63;100.00;101925.47;4893884;29;20376;-68
2023/09/27 00:54:13;;;;;;;19.73;11.55;;;;;;;13.63;100.00;101917.44;4893991;29;20037;-68
2023/09/27 00:56:39;;;;;;;17.25;11.43;;;;;;;13.59;100.00;101930.38;4894022;29;20045;-68
2023/09/27 00:59:06;;;;;;;18.13;12.27;;;;;;;13.56;100.00;101933.44;4893901;29;20036;-68
2023/09/27 01:01:32;;;;;;;20.77;13.35;;;;;;;13.52;100.00;101921.44;4893953;29;20039;-69
2023/09/27 01:03:58;;;;;;;19.80;13.27;;;;;;;13.50;100.00;101904.72;4896362;29;20039;-68
2023/09/27 01:06:24;;;;;;;19.02;11.77;;;;;;;13.47;100.00;101921.19;4897261;29;20032;-68
2023/09/27 01:08:49;;;;;;;20.58;11.35;;;;;;;13.46;100.00;101919.50;4897213;29;20033;-68
2023/09/27 01:11:15;;;;;;;20.05;12.60;;;;;;;13.47;100.00;101921.19;4880322;29;20173;-68
2023/09/27 01:13:40;;;;;;;21.63;13.10;;;;;;;13.54;100.00;101915.88;4897161;29;20396;-68
2023/09/27 01:16:06;;;;;;;18.95;13.25;;;;;;;13.56;100.00;101906.63;4897047;29;20036;-68
2023/09/27 01:18:31;;;;;;;20.77;12.15;;;;;;;13.46;100.00;101895.38;4896974;29;20071;-68
2023/09/27 01:20:57;;;;;;;17.50;11.68;;;;;;;13.58;100.00;101909.13;4896809;29;20052;-68
2023/09/27 01:23:22;;;;;;;17.10;11.20;;;;;;;13.51;100.00;101910.91;4896823;29;20560;-68
2023/09/27 01:25:54;;;;;;;16.90;10.85;;;;;;;13.48;100.00;101908.59;4896949;29;20127;-68
2023/09/27 01:28:21;;;;;;;18.90;11.55;;;;;;;13.47;100.00;101907.78;4896812;29;20068;-68
2023/09/27 01:30:47;;;;;;;17.90;12.60;;;;;;;13.50;100.00;101901.22;4896688;29;20040;-68
2023/09/27 01:33:13;;;;;;;17.48;11.48;;;;;;;13.49;100.00;101894.19;4879988;29;20396;-69
2023/09/27 01:35:40;;;;;;;17.85;12.18;;;;;;;13.51;100.00;101884.91;4896752;29;20032;-68
2023/09/27 01:38:06;;;;;;;20.17;11.73;;;;;;;13.58;100.00;101882.31;4896790;29;20119;-68
2023/09/27 01:40:37;;;;;;;18.77;12.25;;;;;;;13.63;100.00;101879.91;4896517;29;20036;-69
2023/09/27 01:43:04;;;;;;;17.50;12.07;;;;;;;13.57;100.00;101870.78;4896621;29;20039;-69
2023/09/27 01:45:31;;;;;;;17.70;11.13;;;;;;;13.54;100.00;101873.81;4896563;29;20056;-68
2023/09/27 01:47:57;;;;;;;20.08;11.90;;;;;;;13.52;100.00;101870.53;4896637;29;20029;-69
2023/09/27 01:50:24;;;;;;;22.08;12.68;;;;;;;13.52;100.00;101864.34;4896434;29;20067;-68
2023/09/27 01:52:53;;;;;;;18.02;11.73;;;;;;;13.55;100.00;101866.63;4896340;29;20041;-68
2023/09/27 01:55:19;;;;;;;18.70;10.75;;;;;;;13.50;100.00;101866.38;4896368;29;20031;-68
2023/09/27 01:57:48;;;;;;;19.77;12.20;;;;;;;13.47;100.00;101875.63;4896352;29;20037;-69
2023/09/27 02:00:15;;;;;;;17.10;10.50;;;;;;;13.42;100.00;101883.41;4896260;29;20234;-68
2023/09/27 02:02:41;;;;;;;19.88;11.50;;;;;;;13.35;100.00;101882.50;4896149;29;20033;-68
2023/09/27 02:05:08;;;;;;;17.50;10.85;;;;;;;13.24;100.00;101885.66;4896216;29;20040;-68
2023/09/27 02:07:33;;;;;;;19.48;11.32;;;;;;;13.22;100.00;101885.00;4896209;29;20076;-68
2023/09/27 02:09:58;;;;;;;19.00;12.65;;;;;;;13.16;100.00;101882.03;4895998;29;20033;-68
2023/09/27 02:12:24;;;;;;;14.35;9.38;;;;;;;13.07;100.00;101877.84;4895797;29;20044;-68
2023/09/27 02:14:49;;;;;;;17.08;10.93;;;;;;;13.03;100.00;101878.38;4895560;29;20064;-68
2023/09/27 02:17:14;;;;;;;17.25;10.85;;;;;;;13.02;100.00;101869.53;4896063;29;20556;-68
2023/09/27 02:19:40;;;;;;;16.30;9.57;;;;;;;13.02;100.00;101880.25;4879100;29;20508;-68
2023/09/27 02:22:06;;;;;;;16.40;10.10;;;;;;;13.06;100.00;101878.84;4895778;29;20365;-68
2023/09/27 02:24:31;;;;;;;18.67;11.48;;;;;;;13.06;100.00;101865.44;4895961;29;20609;-68
2023/09/27 02:26:57;;;;;;;25.15;10.63;;;;;;;13.15;100.00;101874.19;4895678;29;20119;-68
2023/09/27 02:29:22;;;;;;;16.38;10.32;;;;;;;13.14;100.00;101886.75;4895711;29;20032;-68
2023/09/27 02:31:48;;;;;;;17.60;10.30;;;;;;;13.04;100.00;101882.72;4895614;29;20028;-68
2023/09/27 02:34:13;;;;;;;15.32;10.63;;;;;;;13.06;100.00;101891.41;4895899;29;20079;-68
2023/09/27 02:36:39;;;;;;;19.40;10.52;;;;;;;12.93;100.00;101882.19;4895801;29;20037;-68
2023/09/27 02:39:05;;;;;;;16.45;9.52;;;;;;;12.83;100.00;101870.09;4895712;29;20066;-68
2023/09/27 02:41:31;;;;;;;15.50;10.05;;;;;;;12.82;100.00;101874.63;4895587;29;20530;-68
2023/09/27 02:43:56;;;;;;;17.73;10.80;;;;;;;12.82;100.00;101881.84;4895545;29;20039;-68
2023/09/27 02:46:22;;;;;;;16.95;10.45;;;;;;;12.80;100.00;101889.22;4895408;29;20039;-68
2023/09/27 02:48:47;;;;;;;15.30;9.82;;;;;;;12.76;100.00;101885.25;4895435;29;20028;-68
2023/09/27 02:51:16;;;;;;;17.92;10.50;;;;;;;12.72;100.00;101877.59;4895141;29;20537;-68
2023/09/27 02:53:42;;;;;;;16.15;10.25;;;;;;;12.75;100.00;101879.06;4895027;29;20100;-68
2023/09/27 02:56:07;;;;;;;17.35;10.93;;;;;;;12.72;100.00;101885.59;4895257;29;20509;-69
2023/09/27 02:58:33;;;;;;;15.18;9.75;;;;;;;12.69;100.00;101888.66;4895314;29;20036;-68
2023/09/27 03:00:58;;;;;;;17.27;10.73;;;;;;;12.66;100.00;101885.53;4895231;29;20040;-68
2023/09/27 03:03:24;;;;;;;14.63;9.10;;;;;;;12.59;100.00;101874.72;4895173;29;20040;-68
2023/09/27 03:05:50;;;;;;;15.48;10.77;;;;;;;12.56;100.00;101880.44;4894993;29;20047;-68
2023/09/27 03:08:15;;;;;;;14.45;9.13;;;;;;;12.47;100.00;101869.03;4895171;29;20048;-69
2023/09/27 03:10:41;;;;;;;15.65;9.05;;;;;;;12.51;100.00;101877.50;4878279;29;20040;-69
2023/09/27 03:13:09;;;;;;;17.20;10.73;;;;;;;12.48;100.00;101876.03;4895031;29;20096;-68
2023/09/27 03:15:35;;;;;;;18.65;11.30;;;;;;;12.49;100.00;101884.88;4895073;29;20040;-68
2023/09/27 03:18:01;;;;;;;15.40;9.70;;;;;;;12.41;100.00;101879.59;4894892;29;20153;-68
2023/09/27 03:20:26;;;;;;;15.73;10.65;;;;;;;12.44;100.00;101888.13;4893383;29;20172;-68
2023/09/27 03:22:52;;;;;;;15.23;8.93;;;;;;;12.39;100.00;101873.59;4894853;29;20684;-68
2023/09/27 03:25:17;;;;;;;16.73;10.43;;;;;;;12.39;100.00;101873.59;4893450;29;20400;-68
2023/09/27 03:27:43;;;;;;;15.40;9.70;;;;;;;12.35;100.00;101875.81;4894037;29;20060;-69
2023/09/27 03:30:09;;;;;;;15.88;10.05;;;;;;;12.41;100.00;101883.13;4877928;29;20029;-68
2023/09/27 03:32:34;;;;;;;15.10;9.07;;;;;;;12.39;100.00;101882.50;4894558;29;20033;-68
2023/09/27 03:35:00;;;;;;;14.55;8.70;;;;;;;12.39;100.00;101885.16;4894621;29;20080;-68
2023/09/27 03:37:25;;;;;;;17.55;9.75;;;;;;;12.36;100.00;101880.16;4894580;29;20044;-68
2023/09/27 03:39:53;;;;;;;14.45;9.73;;;;;;;12.41;100.00;101893.00;4894577;29;20064;-68
2023/09/27 03:42:20;;;;;;;16.40;10.05;;;;;;;12.41;100.00;101909.88;4878192;29;20139;-68
2023/09/27 03:44:47;;;;;;;17.25;10.73;;;;;;;12.30;100.00;101886.25;4894406;29;20123;-68
2023/09/27 03:47:12;;;;;;;17.95;10.05;;;;;;;12.40;100.00;101908.22;4894591;29;20108;-68
2023/09/27 03:49:40;;;;;;;15.90;10.13;;;;;;;12.38;100.00;101909.41;4894411;29;20119;-68
2023/09/27 03:52:06;;;;;;;19.05;11.75;;;;;;;12.37;100.00;101905.91;4877655;29;20392;-68
2023/09/27 03:54:32;;;;;;;17.88;10.55;;;;;;;12.37;100.00;101913.09;4894203;29;20065;-68
2023/09/27 03:56:58;;;;;;;16.13;10.00;;;;;;;12.33;100.00;101906.44;4894373;29;20044;-68
2023/09/27 03:59:23;;;;;;;17.73;11.32;;;;;;;12.36;100.00;101904.22;4877772;29;20076;-68
2023/09/27 04:01:49;;;;;;;18.00;9.50;;;;;;;12.24;100.00;101903.84;4894443;29;20028;-68
2023/09/27 04:04:14;;;;;;;18.60;10.73;;;;;;;12.24;100.00;101917.22;4894320;29;20037;-68
2023/09/27 04:06:40;;;;;;;16.00;9.70;;;;;;;12.19;100.00;101905.41;4894215;29;20029;-68
2023/09/27 04:09:07;;;;;;;15.27;10.18;;;;;;;12.09;100.00;101900.31;4894253;29;20551;-68
2023/09/27 04:11:32;;;;;;;19.67;11.60;;;;;;;12.13;100.00;101909.66;4877487;29;20040;-68
2023/09/27 04:13:57;;;;;;;17.23;10.05;;;;;;;12.15;100.00;101920.97;4894292;29;20037;-68
2023/09/27 04:16:26;;;;;;;17.48;10.38;;;;;;;12.11;100.00;101917.00;4894301;29;20124;-68
2023/09/27 04:18:51;;;;;;;16.52;11.13;;;;;;;12.10;100.00;101931.38;4893930;29;20029;-68
2023/09/27 04:21:17;;;;;;;17.27;10.82;;;;;;;11.96;100.00;101919.63;4894116;29;20139;-69
2023/09/27 04:23:42;;;;;;;14.82;9.40;;;;;;;12.06;100.00;101932.78;4894259;29;20051;-68
2023/09/27 04:26:09;;;;;;;14.93;10.20;;;;;;;12.02;100.00;101926.09;4894729;29;20048;-68
2023/09/27 04:28:34;;;;;;;17.50;10.40;;;;;;;12.01;100.00;101929.81;4894203;29;20076;-68
2023/09/27 04:31:00;;;;;;;22.45;10.73;;;;;;;11.98;100.00;101916.78;4877240;29;20076;-68
2023/09/27 04:33:25;;;;;;;16.80;11.90;;;;;;;11.99;100.00;101916.59;4894212;29;20122;-68
2023/09/27 04:35:51;;;;;;;18.75;10.60;;;;;;;11.99;100.00;101918.44;4877308;29;20060;-68
2023/09/27 04:38:16;;;;;;;17.60;10.60;;;;;;;11.99;100.00;101919.28;4879031;29;20052;-68
2023/09/27 04:40:42;;;;;;;22.40;11.77;;;;;;;12.06;100.00;101932.78;4897630;29;20523;-69
2023/09/27 04:43:08;;;;;;;15.70;9.98;;;;;;;12.09;100.00;101934.25;4897785;29;20040;-68
2023/09/27 04:45:33;;;;;;;17.70;10.95;;;;;;;12.12;100.00;101928.53;4880772;29;20032;-68
2023/09/27 04:47:59;;;;;;;18.63;10.90;;;;;;;12.14;100.00;101939.91;4897479;29;20029;-69
2023/09/27 04:50:25;;;;;;;16.55;10.70;;;;;;;12.04;100.00;101935.59;4897481;29;20044;-68
2023/09/27 04:52:51;;;;;;;17.02;9.77;;;;;;;12.10;100.00;101955.44;4880571;29;20432;-68
2023/09/27 04:55:17;;;;;;;17.05;10.40;;;;;;;11.96;100.00;101942.88;4897303;29;20063;-68
2023/09/27 04:57:42;;;;;;;19.63;10.20;;;;;;;11.95;100.00;101942.03;4880572;29;20048;-69
2023/09/27 05:00:18;;;;;;;16.88;10.52;;;;;;;11.87;100.00;101920.72;4897409;29;20020;-68
2023/09/27 05:02:45;;;;;;;16.75;10.80;;;;;;;11.78;100.00;101895.03;4897286;29;20028;-68
2023/09/27 05:05:10;;;;;;;21.35;10.90;;;;;;;11.81;100.00;101898.16;4897343;29;20496;-68
2023/09/27 05:07:36;;;;;;;18.30;12.00;;;;;;;11.83;100.00;101924.72;4897218;29;20085;-68
2023/09/27 05:10:01;;;;;;;17.88;11.27;;;;;;;11.85;100.00;101936.91;4897195;29;20032;-68
2023/09/27 05:12:26;;;;;;;17.35;10.65;;;;;;;11.87;100.00;101925.22;4896848;29;20032;-68
2023/09/27 05:14:52;;;;;;;19.38;11.15;;;;;;;11.87;100.00;101918.06;4897050;29;20044;-68
2023/09/27 05:17:17;;;;;;;14.73;9.63;;;;;;;11.88;100.00;101924.22;4897044;29;20040;-68
2023/09/27 05:19:43;;;;;;;17.27;11.02;;;;;;;11.88;100.00;101922.38;4896801;29;20080;-68
2023/09/27 05:22:08;;;;;;;17.80;10.82;;;;;;;11.91;100.00;101921.19;4897036;29;20028;-68
2023/09/27 05:24:38;;;;;;;15.60;9.38;;;;;;;11.93;100.00;101930.69;4896076;29;20024;-68
2023/09/27 05:27:05;;;;;;;17.42;11.38;;;;;;;11.96;100.00;101933.00;4894497;29;20433;-68
2023/09/27 05:29:31;;;;;;;15.50;9.43;;;;;;;11.93;100.00;101916.50;4895898;29;20041;-68
2023/09/27 05:31:56;;;;;;;17.38;10.48;;;;;;;11.92;100.00;101915.69;4894596;29;20043;-68
2023/09/27 05:34:22;;;;;;;19.20;11.00;;;;;;;11.91;100.00;101922.00;4895817;29;20092;-69
2023/09/27 05:36:47;;;;;;;14.98;9.65;;;;;;;11.93;100.00;101911.16;4896321;29;20107;-68
2023/09/27 05:39:13;;;;;;;17.83;10.90;;;;;;;11.80;100.00;101891.16;4879665;29;20063;-68
2023/09/27 05:41:38;;;;;;;19.88;11.02;;;;;;;11.90;100.00;101909.66;4879757;29;20495;-68
2023/09/27 05:44:04;;;;;;;18.67;10.38;;;;;;;11.91;100.00;101889.09;4895917;29;20096;-68
2023/09/27 05:46:29;;;;;;;16.50;10.02;;;;;;;11.95;100.00;101911.81;4879411;29;20069;-68
2023/09/27 05:48:55;;;;;;;15.82;9.57;;;;;;;11.93;100.00;101908.47;4895242;29;20123;-68
2023/09/27 05:51:20;;;;;;;12.82;8.20;;;;;;;11.98;100.00;101906.09;4893192;29;20477;-68
2023/09/27 05:53:48;;;;;;;15.48;9.05;;;;;;;11.92;100.00;101893.44;4895659;29;20127;-68
2023/09/27 05:56:13;;;;;;;13.95;9.02;;;;;;;11.92;100.00;101902.31;4895935;29;20385;-68
2023/09/27 05:58:39;;;;;;;16.33;9.52;;;;;;;11.94;100.00;101891.41;4896223;29;20042;-69
2023/09/27 06:01:05;;;;;;;18.52;10.65;;;;;;;11.93;100.00;101879.91;4896000;29;20111;-68
2023/09/27 06:03:35;;;;;;;16.38;10.02;;;;;;;11.98;100.00;101898.09;4896002;29;20064;-68
2023/09/27 06:06:03;;;;;;;20.87;11.83;;;;;;;11.99;100.00;101894.38;4879098;29;20044;-68
2023/09/27 06:08:29;;;;;;;17.90;9.98;;;;;;;11.93;100.00;101879.91;4895922;29;20032;-68
2023/09/27 06:10:55;;;;;;;18.58;11.57;;;;;;;11.98;100.00;101888.22;4895735;29;20059;-68
2023/09/27 06:13:21;;;;;;;18.85;10.60;;;;;;;11.99;100.00;101894.38;4895891;29;20064;-68
2023/09/27 06:15:46;;;;;;;16.75;10.50;;;;;;;12.01;100.00;101895.88;4895794;29;20647;-68
2023/09/27 06:18:12;;;;;;;16.85;10.60;;;;;;;12.02;100.00;101899.38;4895782;29;20036;-68
2023/09/27 06:20:38;;;;;;;15.73;9.70;;;;;;;12.00;100.00;101896.06;4895832;29;20061;-68
2023/09/27 06:23:04;;;;;;;18.45;11.65;;;;;;;11.97;100.00;101891.06;4895776;29;20473;-68
2023/09/27 06:25:31;;;;;;;17.83;10.95;;;;;;;12.00;100.00;101894.22;4895215;29;20047;-68
2023/09/27 06:27:57;;;;;;;16.38;10.57;;;;;;;12.04;100.00;101894.69;4895553;29;20077;-68
2023/09/27 06:30:23;;;;;;;18.63;12.27;;;;;;;12.06;100.00;101887.31;4878728;29;20048;-68
2023/09/27 06:32:49;;;;;;;20.25;12.77;;;;;;;12.21;100.00;101900.72;4895452;29;20036;-68
2023/09/27 06:35:14;;;;;;;20.27;13.30;;;;;;;12.29;100.00;101897.97;4895400;29;20092;-68
2023/09/27 06:37:48;;;;;;;20.05;13.52;;;;;;;12.45;100.00;101894.28;4895527;29;20041;-68
2023/09/27 06:40:17;;;;;;;23.08;14.55;;;;;;;12.57;100.00;101895.47;4895370;29;20047;-69
2023/09/27 06:42:44;;;;;;;21.98;14.73;;;;;;;12.64;100.00;101880.34;4895406;29;21003;-69
2023/09/27 06:45:10;;;;;;;23.20;15.60;;;;;;;12.75;100.00;101881.72;4895626;29;20060;-68
2023/09/27 06:47:38;;;;;;;25.05;16.63;;;;;;;12.80;100.00;101886.53;4895167;29;20041;-68
2023/09/27 06:50:04;;;;;;;21.80;15.32;;;;;;;12.92;100.00;101885.88;4895807;29;20048;-69
2023/09/27 06:52:29;;;;;;;23.67;16.77;;;;;;;13.00;100.00;101887.63;4895333;29;20037;-69
2023/09/27 06:54:55;;;;;;;23.98;16.60;;;;;;;13.15;100.00;101891.13;4895220;29;20060;-68
2023/09/27 06:57:20;;;;;;;24.60;18.27;;;;;;;13.22;100.00;101887.66;4895264;29;20032;-68
2023/09/27 06:59:46;;;;;;;24.02;17.83;;;;;;;13.35;100.00;101902.06;4895029;29;20059;-68
2023/09/27 07:02:11;;;;;;;24.98;16.88;;;;;;;13.46;100.00;101907.97;4894567;29;20024;-68
2023/09/27 07:04:38;;;;;;;24.52;18.30;;;;;;;13.52;100.00;101907.22;4894708;29;20080;-68
2023/09/27 07:07:04;;;;;;;22.98;16.92;;;;;;;13.56;100.00;101901.25;4894246;29;20044;-69
2023/09/27 07:09:33;;;;;;;24.08;17.30;;;;;;;13.65;100.00;101896.63;4893085;29;20396;-68
2023/09/27 07:11:58;;;;;;;25.13;18.05;;;;;;;13.71;100.00;101885.13;4894705;29;20037;-68
2023/09/27 07:14:24;;;;;;;23.48;17.88;;;;;;;13.81;100.00;101890.19;4894604;29;20092;-68
2023/09/27 07:16:50;;;;;;;24.77;17.85;;;;;;;13.86;100.00;101897.63;4894595;29;20036;-68
2023/09/27 07:19:17;;;;;;;22.52;17.70;;;;;;;13.94;100.00;101909.06;4894477;29;20060;-68
2023/09/27 07:21:43;;;;;;;24.52;18.40;;;;;;;13.99;100.00;101908.47;4894429;29;20032;-67
2023/09/27 07:24:09;;;;;;;25.10;18.95;;;;;;;13.99;100.00;101916.50;4894337;29;20186;-68
2023/09/27 07:26:35;;;;;;;22.92;17.63;;;;;;;14.00;100.00;101924.38;4894638;29;20060;-70
2023/09/27 07:29:01;;;;;;;23.25;18.52;;;;;;;14.03;100.00;101918.63;4894373;29;20044;-69
2023/09/27 07:31:26;;;;;;;24.58;19.67;;;;;;;14.05;100.00;101918.44;4894357;29;20040;-70
2023/09/27 07:33:55;;;;;;;25.23;18.52;;;;;;;14.08;100.00;101912.69;4894280;29;20043;-70
2023/09/27 07:36:24;;;;;;;24.05;19.17;;;;;;;14.14;100.00;101922.63;4894160;29;20498;-70
2023/09/27 07:38:50;;;;;;;29.08;19.15;;;;;;;14.19;100.00;101930.09;4894371;29;20032;-71
2023/09/27 07:41:16;;;;;;;23.05;18.35;;;;;;;14.21;100.00;101920.00;4894200;29;20075;-70
2023/09/27 07:43:41;;;;;;;28.08;20.55;;;;;;;14.24;100.00;101901.66;4894513;29;20492;-70
2023/09/27 07:46:07;;;;;;;24.70;18.75;;;;;;;14.30;100.00;101902.72;4894253;29;20480;-70
2023/09/27 07:48:35;;;;;;;23.10;18.20;;;;;;;14.38;100.00;101899.06;4894341;29;20150;-70
2023/09/27 07:51:00;;;;;;;24.83;19.38;;;;;;;14.46;100.00;101901.59;4894148;29;20036;-70
2023/09/27 07:53:26;;;;;;;28.65;20.55;;;;;;;14.51;100.00;101893.78;4894373;29;20441;-71
2023/09/27 07:55:53;;;;;;;27.15;20.13;;;;;;;14.53;100.00;101883.72;4877133;29;20076;-70
2023/09/27 07:58:18;;;;;;;28.08;21.25;;;;;;;14.64;100.00;101891.22;4893976;29;20029;-70
2023/09/27 08:00:44;;;;;;;27.45;22.13;;;;;;;14.77;100.00;101903.06;4893900;29;20092;-70
2023/09/27 08:03:10;;;;;;;26.75;21.25;;;;;;;14.86;100.00;101902.69;4894233;29;20033;-70
2023/09/27 08:05:42;;;;;;;28.17;22.42;;;;;;;14.95;100.00;101902.53;4894245;29;20029;-71
2023/09/27 08:08:12;;;;;;;26.75;23.13;;;;;;;15.07;100.00;101912.50;4894233;29;20080;-70
2023/09/27 08:10:47;;;;;;;26.83;22.58;;;;;;;15.17;100.00;101914.84;4894137;29;20036;-70
2023/09/27 08:13:14;;;;;;;38.30;23.33;;;;;;;15.27;100.00;101912.59;4895445;29;20132;-70
2023/09/27 08:15:41;;;;;;;25.75;21.20;;;;;;;15.40;100.00;101908.28;4881012;29;20119;-70
2023/09/27 08:18:07;;;;;;;28.42;22.48;;;;;;;15.42;100.00;101901.66;4898045;29;20025;-69
2023/09/27 08:20:33;;;;;;;25.80;20.25;;;;;;;15.62;100.00;101915.16;4897590;29;20089;-70
2023/09/27 08:22:59;;;;;;;23.45;18.63;;;;;;;15.76;100.00;101921.41;4897710;29;20115;-70
2023/09/27 08:25:24;;;;;;;27.15;19.70;;;;;;;15.85;100.00;101919.34;4897714;29;20149;-69
2023/09/27 08:27:50;;;;;;;25.58;19.23;;;;;;;15.92;100.00;101925.56;4897723;29;20440;-70
2023/09/27 08:30:16;;;;;;;26.13;19.20;;;;;;;15.95;100.00;101934.06;4897552;29;20429;-69
2023/09/27 08:32:41;;;;;;;28.20;19.98;;;;;;;16.06;100.00;101937.16;4897589;29;20396;-68
2023/09/27 08:35:07;;;;;;;26.05;19.17;;;;;;;16.08;100.00;101935.09;4879895;29;20128;-69
2023/09/27 08:37:32;;;;;;;30.98;19.38;;;;;;;16.20;100.00;101949.59;4880383;29;20488;-69
2023/09/27 08:39:58;;;;;;;25.35;18.73;;;;;;;16.31;100.00;101950.84;4897610;29;20139;-74
2023/09/27 08:42:24;;;;;;;23.83;16.60;;;;;;;16.39;100.00;101950.63;4897590;29;20029;-70
2023/09/27 08:44:52;;;;;;;22.98;17.65;;;;;;;16.48;100.00;101946.69;4897463;29;20024;-70
2023/09/27 08:47:18;;;;;;;23.00;17.25;;;;;;;16.57;100.00;101948.13;4897322;29;20065;-71
2023/09/27 08:49:45;;;;;;;22.33;16.17;;;;;;;16.63;100.00;101957.22;4897344;29;20567;-71
2023/09/27 08:52:11;;;;;;;22.45;15.73;;;;;;;16.75;100.00;101968.19;4880633;29;20045;-71
2023/09/27 08:54:37;;;;;;;25.80;18.75;;;;;;;16.87;100.00;101966.53;4897021;29;20561;-71
2023/09/27 08:57:03;;;;;;;25.52;17.52;;;;;;;16.95;100.00;101965.47;4897047;29;20048;-71
2023/09/27 08:59:29;;;;;;;24.63;17.85;;;;;;;16.99;100.00;101953.25;4896892;29;20063;-71
2023/09/27 09:01:57;;;;;;;24.60;18.73;;;;;;;17.03;100.00;101949.09;4897117;29;20496;-71
2023/09/27 09:04:23;;;;;;;24.73;18.42;;;;;;;17.09;100.00;101940.97;4896908;29;20054;-71
2023/09/27 09:06:50;;;;;;;25.02;19.13;;;;;;;17.19;100.00;101945.09;4896982;29;20469;-71
2023/09/27 09:09:16;;;;;;;23.35;18.83;;;;;;;17.27;100.00;101940.28;4897185;29;20036;-71
2023/09/27 09:11:48;;;;;;;24.45;19.25;;;;;;;17.41;100.00;101938.34;4896879;29;20033;-70
2023/09/27 09:14:17;;;;;;;26.17;17.48;;;;;;;17.56;100.00;101939.94;4896831;29;20033;-71
2023/09/27 09:16:53;;;;;;;24.42;16.98;;;;;;;17.74;100.00;101945.44;4896598;29;20116;-70
2023/09/27 09:19:22;;;;;;;25.08;16.77;;;;;;;17.82;100.00;101938.97;4896594;29;20060;-71
2023/09/27 09:22:00;;;;;;;22.77;18.35;;;;;;;17.93;100.00;101927.47;4896622;29;20560;-71
2023/09/27 09:24:25;;;;;;;23.40;16.38;;;;;;;17.96;100.00;101921.63;4878127;29;20029;-70
2023/09/27 09:27:08;;;;;;;22.13;15.82;;;;;;;18.06;100.00;101923.84;4896479;29;20068;-71
2023/09/27 09:29:43;;;;;;;23.45;16.27;;;;;;;18.11;100.00;101924.81;4896726;29;20035;-70
2023/09/27 09:32:08;;;;;;;20.83;15.15;;;;;;;18.16;100.00;101918.78;4896432;29;20551;-70
2023/09/27 09:34:41;;;;;;;21.75;17.23;;;;;;;18.17;100.00;101915.00;4896626;29;20032;-71
2023/09/27 09:37:15;;;;;;;40.15;15.52;;;;;;;18.29;100.00;101913.25;4896516;29;20119;-70
2023/09/27 09:39:40;;;;;;;18.83;14.25;;;;;;;18.27;100.00;101918.03;4893679;29;20036;-71
2023/09/27 09:42:06;;;;;;;18.92;13.50;;;;;;;18.31;100.00;101919.25;4871518;29;20385;-68
2023/09/27 09:44:31;;;;;;;21.98;15.20;;;;;;;18.40;100.00;101919.78;4889030;29;20025;-67
2023/09/27 09:47:11;;;;;;;19.55;13.65;;;;;;;18.49;100.00;101902.22;4872239;29;21260;-67
2023/09/27 09:49:38;;;;;;;19.85;14.15;;;;;;;18.48;100.00;101905.19;4888853;29;20047;-68
2023/09/27 09:52:05;;;;;;;22.48;14.88;;;;;;;18.48;100.00;101902.47;4888757;29;20060;-68
2023/09/27 09:54:46;;;;;;;20.17;13.48;;;;;;;18.46;100.00;101899.16;4888799;29;20035;-68
2023/09/27 09:57:12;;;;;;;19.80;12.63;;;;;;;18.45;100.00;101882.13;4888636;29;20032;-69
2023/09/27 09:59:49;;;;;;;19.30;12.93;;;;;;;18.61;100.00;101886.13;4888282;29;20091;-70
2023/09/27 10:02:27;;;;;;;19.77;12.55;;;;;;;18.81;100.00;101880.50;4888470;29;20031;-70
2023/09/27 10:04:56;;;;;;;17.95;12.68;;;;;;;18.91;100.00;101882.69;4872115;29;20028;-68
2023/09/27 10:07:25;;;;;;;21.85;13.48;;;;;;;19.03;100.00;101870.06;4888289;29;20088;-69
2023/09/27 10:09:52;;;;;;;18.17;11.77;;;;;;;19.13;100.00;101862.22;4888585;29;20481;-72
2023/09/27 10:12:21;;;;;;;16.70;11.55;;;;;;;19.26;100.00;101866.63;4888944;29;20035;-73
2023/09/27 10:14:47;;;;;;;16.95;11.45;;;;;;;19.40;100.00;101868.06;4888795;29;20039;-73
2023/09/27 10:17:23;;;;;;;18.88;10.93;;;;;;;19.57;100.00;101872.81;4889354;29;20369;-74
2023/09/27 10:20:19;;;;;;;13.80;9.43;;;;;;;19.75;100.00;101861.94;4887953;29;20057;-74
2023/09/27 10:22:47;;;;;;;16.92;9.95;;;;;;;19.81;100.00;101857.50;4887841;29;20064;-73
2023/09/27 10:25:27;;;;;;;18.45;10.63;;;;;;;19.90;100.00;101851.47;4888405;29;20143;-73
2023/09/27 10:28:01;;;;;;;17.33;10.02;;;;;;;19.97;100.00;101862.22;4888870;29;20147;-73
2023/09/27 10:30:48;;;;;;;13.60;8.25;;;;;;;20.09;100.00;101857.59;4888240;29;20032;-74
2023/09/27 10:33:20;;;;;;;13.80;8.52;;;;;;;20.18;100.00;101863.53;4881172;29;20743;-74
2023/09/27 10:35:46;;;;;;;14.45;8.45;;;;;;;20.31;100.00;101865.16;4888027;29;20050;-74
2023/09/27 10:38:12;;;;;;;15.00;9.18;;;;;;;20.41;97.99;101872.66;4886702;29;20060;-74
2023/09/27 10:40:47;;;;;;;14.25;8.88;;;;;;;20.51;96.70;101865.63;4888110;29;20032;-74
2023/09/27 10:43:36;;;;;;;13.35;8.45;;;;;;;20.57;100.00;101861.97;4888237;29;20043;-74
2023/09/27 10:46:04;;;;;;;14.27;9.15;;;;;;;20.48;96.01;101851.69;4862236;29;20036;-74
2023/09/27 10:48:42;;;;;;;14.50;8.02;;;;;;;20.46;97.13;101848.41;4888254;29;20072;-74
2023/09/27 10:51:08;;;;;;;15.02;9.15;;;;;;;20.47;97.09;101833.81;4888164;29;20387;-74
2023/09/27 10:53:34;;;;;;;13.57;8.73;;;;;;;20.50;99.61;101825.19;4871100;29;20028;-73
2023/09/27 10:55:59;;;;;;;17.48;9.45;;;;;;;20.57;97.69;101812.38;4887917;29;20095;-73
2023/09/27 10:58:25;;;;;;;16.77;8.82;;;;;;;20.57;96.62;101801.53;4888091;29;20417;-73
2023/09/27 11:00:51;;;;;;;13.70;8.95;;;;;;;20.66;99.09;101810.91;4887411;29;20706;-74
2023/09/27 11:03:17;;;;;;;13.43;8.15;;;;;;;20.70;97.95;101803.13;4870544;29;20036;-76